Time;durP1;ratioP1;P1;durP2;ratioP2;P2;SDS_P1;SDS_P2;PMS_P1;PMS_P2;Temp;Humidity;BMP_temperature;BMP_pressure;BME280_temperature;BME280_humidity;BME280_pressure;Samples;Min_cycle;Max_cycle;Signal;HPM_P1;HPM_P2
2021/11/02 00:01:59;;;;;;;25.60;16.48;;;;;;;;;;4420150;32;19976;-73
2021/11/02 00:04:24;;;;;;;;;;;;;;;;;;4420456;32;20022;-74
2021/11/02 00:06:50;;;;;;;24.35;17.08;;;;;;;;;;4420170;32;19960;-73
2021/11/02 00:09:16;;;;;;;;;;;;;;;;;;4406480;32;20188;-73
2021/11/02 00:11:42;;;;;;;26.42;16.75;;;;;;;;;;4419987;32;19933;-73
2021/11/02 00:14:08;;;;;;;;;;;;;;;;;;4422536;32;20495;-73
2021/11/02 00:16:34;;;;;;;26.73;17.17;;;;;;;;;;4422915;32;19952;-73
2021/11/02 00:19:04;;;;;;;;;;;;;;;;;;4423221;32;20022;-74
2021/11/02 00:21:33;;;;;;;23.42;16.80;;;;;;;;;;4408566;32;20224;-73
2021/11/02 00:24:11;;;;;;;26.37;17.80;;;;;;;;;;4422563;32;20064;-73
2021/11/02 00:26:37;;;;;;;24.17;16.62;;;;;;;;;;4422741;32;20042;-73
2021/11/02 00:29:02;;;;;;;;;;;;;;;;;;4423114;32;20022;-73
2021/11/02 00:31:27;;;;;;;27.85;18.12;;;;;;;;;;4422291;32;19940;-73
2021/11/02 00:33:52;;;;;;;;;;;;;;;;;;4423033;32;20029;-73
2021/11/02 00:36:18;;;;;;;27.10;18.58;;;;;;;;;;4422327;32;19990;-72
2021/11/02 00:38:43;;;;;;;;;;;;;;;;;;4423232;32;20026;-73
2021/11/02 00:41:08;;;;;;;28.98;17.50;;;;;;;;;;4422617;32;19996;-72
2021/11/02 00:43:35;;;;;;;;;;;;;;;;;;4422724;32;20125;-73
2021/11/02 00:46:00;;;;;;;22.58;16.70;;;;;;;;;;4422277;32;19985;-73
2021/11/02 00:48:27;;;;;;;;;;;;;;;;;;4422540;32;20483;-72
2021/11/02 00:50:53;;;;;;;29.50;17.40;;;;;;;;;;4421943;32;19960;-72
2021/11/02 00:53:18;;;;;;;;;;;;;;;;;;4422490;32;20026;-73
2021/11/02 00:55:46;;;;;;;27.90;17.98;;;;;;;;;;4422648;32;20300;-73
2021/11/02 00:58:12;;;;;;;23.87;17.70;;;;;;;;;;4421914;32;20075;-72
2021/11/02 01:00:37;;;;;;;;;;;;;;;;;;4419458;32;20090;-73
2021/11/02 01:03:03;;;;;;;29.12;18.98;;;;;;;;;;4421213;32;19970;-73
2021/11/02 01:05:28;;;;;;;;;;;;;;;;;;4422233;32;20056;-72
2021/11/02 01:07:55;;;;;;;28.34;18.96;;;;;;;;;;4422399;32;19937;-72
2021/11/02 01:10:21;;;;;;;29.25;18.75;;;;;;;;;;4421879;32;20060;-73
2021/11/02 01:12:46;;;;;;;;;;;;;;;;;;4422294;32;20408;-73
2021/11/02 01:15:15;;;;;;;25.33;18.27;;;;;;;;;;4421383;32;20350;-73
2021/11/02 01:17:40;;;;;;;24.23;17.73;;;;;;;;;;4407672;32;20172;-73
2021/11/02 01:20:06;;;;;;;;;;;;;;;;;;4407848;32;20375;-73
2021/11/02 01:22:31;;;;;;;32.08;20.25;;;;;;;;;;4407861;32;19937;-73
2021/11/02 01:24:56;;;;;;;;;;;;;;;;;;4422831;32;20022;-73
2021/11/02 01:27:22;;;;;;;30.27;19.25;;;;;;;;;;4422252;32;19992;-73
2021/11/02 01:29:56;;;;;;;;;;;;;;;;;;4421938;32;20059;-73
2021/11/02 01:32:22;;;;;;;28.65;20.37;;;;;;;;;;4408019;32;19955;-72
2021/11/02 01:34:47;;;;;;;;;;;;;;;;;;4422659;32;20397;-72
2021/11/02 01:37:12;;;;;;;28.92;19.95;;;;;;;;;;4422048;32;20270;-72
2021/11/02 01:39:41;;;;;;;;;;;;;;;;;;4408338;32;20085;-72
2021/11/02 01:42:06;;;;;;;34.30;19.98;;;;;;;;;;4422054;32;20315;-72
2021/11/02 01:44:31;;;;;;;;;;;;;;;;;;4407647;32;20044;-73
2021/11/02 01:46:57;;;;;;;33.67;19.87;;;;;;;;;;4422305;32;19933;-73
2021/11/02 01:49:22;;;;;;;;;;;;;;;;;;4421253;32;20129;-72
2021/11/02 01:51:47;;;;;;;28.70;19.48;;;;;;;;;;4421815;32;19941;-72
2021/11/02 01:54:12;;;;;;;;;;;;;;;;;;4421826;32;20152;-72
2021/11/02 01:56:45;;;;;;;27.92;18.37;;;;;;;;;;4421973;32;19933;-72
2021/11/02 01:59:14;;;;;;;30.40;20.80;;;;;;;;;;4421771;32;20069;-73
2021/11/02 02:01:47;;;;;;;35.42;20.33;;;;;;;;;;4421485;32;20029;-72
2021/11/02 02:04:37;;;;;;;40.83;23.50;;;;;;;;;;4421587;32;20018;-73
2021/11/02 02:07:02;;;;;;;30.88;21.95;;;;;;;;;;4421058;32;20041;-72
2021/11/02 02:09:27;;;;;;;;;;;;;;;;;;4421364;32;20074;-73
2021/11/02 02:12:05;;;;;;;32.88;21.55;;;;;;;;;;4421137;32;19951;-73
2021/11/02 02:14:46;;;;;;;35.13;22.95;;;;;;;;;;4420673;32;20625;-73
2021/11/02 02:17:17;;;;;;;40.97;24.65;;;;;;;;;;4421336;32;20022;-73
2021/11/02 02:19:48;;;;;;;34.83;24.98;;;;;;;;;;4406741;32;20034;-73
2021/11/02 02:22:26;;;;;;;26.80;19.85;;;;;;;;;;4407445;32;20046;-74
2021/11/02 02:25:04;;;;;;;45.12;26.27;;;;;;;;;;4421361;32;20017;-73
2021/11/02 02:27:50;;;;;;;41.00;27.37;;;;;;;;;;4421170;32;20026;-73
2021/11/02 02:30:16;;;;;;;35.80;26.40;;;;;;;;;;4420066;32;20083;-73
2021/11/02 02:32:44;;;;;;;31.62;23.98;;;;;;;;;;4421826;32;20053;-73
2021/11/02 02:35:11;;;;;;;40.92;28.10;;;;;;;;;;4421523;32;20047;-73
2021/11/02 02:37:38;;;;;;;34.72;27.48;;;;;;;;;;4421219;32;20022;-73
2021/11/02 02:40:04;;;;;;;46.40;30.25;;;;;;;;;;4420406;32;20018;-74
2021/11/02 02:42:37;;;;;;;34.70;26.50;;;;;;;;;;4420465;32;20087;-73
2021/11/02 02:45:03;;;;;;;36.15;28.25;;;;;;;;;;4420620;32;20049;-73
2021/11/02 02:47:28;;;;;;;;;;;;;;;;;;4420988;32;20049;-73
2021/11/02 02:49:55;;;;;;;40.63;31.17;;;;;;;;;;4420822;32;20321;-73
2021/11/02 02:52:21;;;;;;;35.15;26.83;;;;;;;;;;4420351;32;20018;-72
2021/11/02 02:54:47;;;;;;;39.53;28.73;;;;;;;;;;4421132;32;20026;-72
2021/11/02 02:57:12;;;;;;;;;;;;;;;;;;4405973;32;20056;-73
2021/11/02 02:59:38;;;;;;;37.35;27.87;;;;;;;;;;4419893;32;19960;-73
2021/11/02 03:02:04;;;;;;;;;;;;;;;;;;4419741;32;20479;-73
2021/11/02 03:04:33;;;;;;;37.72;28.65;;;;;;;;;;4419232;32;19941;-72
2021/11/02 03:06:59;;;;;;;43.55;33.40;;;;;;;;;;4419991;32;20057;-72
2021/11/02 03:09:24;;;;;;;;;;;;;;;;;;4420450;32;20379;-74
2021/11/02 03:11:50;;;;;;;35.42;28.15;;;;;;;;;;4420490;32;19970;-72
2021/11/02 03:14:15;;;;;;;;;;;;;;;;;;4420405;32;20034;-73
2021/11/02 03:16:51;;;;;;;42.97;31.20;;;;;;;;;;4419885;32;19945;-73
2021/11/02 03:20:05;;;;;;;;;;;;;;;;;;4420953;32;20137;-72
2021/11/02 03:55:22;;;;;;;43.92;26.83;;;;;;;;;;4423155;32;20084;-73
2021/11/02 04:31:37;;;;;;;43.15;23.12;;;;;;;;;;4392854;32;20148;-73
2021/11/02 05:48:05;;;;;;;74.60;30.50;;;;;;;;;;4422500;32;20099;-71
2021/11/02 05:56:04;;;;;;;66.37;26.65;;;;;;;;;;4421516;32;20079;-71
2021/11/02 05:58:39;;;;;;;61.97;31.95;;;;;;;;;;4407758;32;20044;-72
2021/11/02 06:06:22;;;;;;;52.92;25.67;;;;;;;;;;4420748;32;19970;-72
2021/11/02 06:09:20;;;;;;;58.90;26.35;;;;;;;;;;4407805;32;20330;-73
2021/11/02 06:28:48;;;;;;;56.30;25.65;;;;;;;;;;4421505;32;20056;-73
2021/11/02 06:31:28;;;;;;;56.88;27.05;;;;;;;;;;4421025;32;20405;-73
2021/11/02 06:34:19;;;;;;;54.95;26.80;;;;;;;;;;4407480;32;20046;-74
2021/11/02 06:48:03;;;;;;;56.60;29.65;;;;;;;;;;4420173;32;20458;-72
2021/11/02 06:59:13;;;;;;;53.72;27.23;;;;;;;;;;4420471;32;20045;-73
2021/11/02 07:10:58;;;;;;;51.78;27.65;;;;;;;;;;4405338;32;20010;-73
2021/11/02 07:16:39;;;;;;;46.75;26.87;;;;;;;;;;4403071;32;20095;-74
2021/11/02 07:19:30;;;;;;;;;;;;;;;;;;4414875;32;20030;-73
2021/11/02 07:24:36;;;;;;;38.28;24.30;;;;;;;;;;4409180;32;20041;-73
2021/11/02 08:47:29;;;;;;;37.22;27.15;;;;;;;;;;4403081;32;20049;-71
2021/11/02 08:49:54;;;;;;;38.00;26.25;;;;;;;;;;4382457;32;20421;-70
2021/11/02 08:52:19;;;;;;;;;;;;;;;;;;4392408;32;20079;-76
2021/11/02 08:54:46;;;;;;;46.42;28.40;;;;;;;;;;4398963;32;19989;-72
2021/11/02 08:57:12;;;;;;;46.55;29.50;;;;;;;;;;4397327;32;20452;-72
2021/11/02 08:59:37;;;;;;;;;;;;;;;;;;4391861;32;20045;-73
2021/11/02 09:02:11;;;;;;;43.20;29.20;;;;;;;;;;4406082;32;20336;-73
2021/11/02 09:04:45;;;;;;;44.75;29.75;;;;;;;;;;4407787;32;20175;-74
2021/11/02 09:07:12;;;;;;;45.25;31.17;;;;;;;;;;4418725;32;20163;-72
2021/11/02 09:09:41;;;;;;;45.33;31.08;;;;;;;;;;4421947;32;20129;-72
2021/11/02 09:12:07;;;;;;;44.75;32.35;;;;;;;;;;4419104;32;20046;-72
2021/11/02 09:14:36;;;;;;;50.38;34.00;;;;;;;;;;4409951;32;20087;-73
2021/11/02 09:17:02;;;;;;;50.58;34.00;;;;;;;;;;4417896;32;20072;-74
2021/11/02 09:19:28;;;;;;;47.55;33.42;;;;;;;;;;4406035;32;20368;-74
2021/11/02 09:21:54;;;;;;;50.15;34.55;;;;;;;;;;4420142;32;20026;-72
2021/11/02 09:24:19;;;;;;;;;;;;;;;;;;4422100;32;20113;-74
2021/11/02 09:26:44;;;;;;;46.72;33.64;;;;;;;;;;4406395;32;19944;-73
2021/11/02 09:29:10;;;;;;;;;;;;;;;;;;4421405;32;20034;-72
2021/11/02 09:31:36;;;;;;;49.03;33.92;;;;;;;;;;4421823;32;19937;-71
2021/11/02 09:34:01;;;;;;;48.10;35.25;;;;;;;;;;4421320;32;20058;-73
2021/11/02 09:36:26;;;;;;;;;;;;;;;;;;4419199;32;20072;-74
2021/11/02 09:38:59;;;;;;;48.13;33.53;;;;;;;;;;4420391;32;19968;-74
2021/11/02 09:41:25;;;;;;;48.67;33.20;;;;;;;;;;4420177;32;20118;-73
2021/11/02 09:44:15;;;;;;;43.17;31.73;;;;;;;;;;4421088;32;20093;-73
2021/11/02 09:47:00;;;;;;;47.88;32.70;;;;;;;;;;4419338;32;20133;-74
2021/11/02 09:49:45;;;;;;;53.28;33.78;;;;;;;;;;4422353;32;20026;-73
2021/11/02 09:52:15;;;;;;;39.72;30.25;;;;;;;;;;4420566;32;20463;-72
2021/11/02 09:54:44;;;;;;;41.37;30.00;;;;;;;;;;4407561;32;20018;-73
2021/11/02 09:57:33;;;;;;;39.55;29.65;;;;;;;;;;4406465;32;20022;-75
2021/11/02 10:00:05;;;;;;;41.15;31.17;;;;;;;;;;4421135;32;20030;-74
2021/11/02 10:02:38;;;;;;;39.63;31.75;;;;;;;;;;4419908;32;20018;-72
2021/11/02 10:05:05;;;;;;;45.50;32.17;;;;;;;;;;4420683;32;20106;-73
2021/11/02 10:07:52;;;;;;;41.25;31.25;;;;;;;;;;4420241;32;20056;-74
2021/11/02 10:10:22;;;;;;;49.15;32.35;;;;;;;;;;4419112;32;20426;-73
2021/11/02 10:12:53;;;;;;;45.15;33.83;;;;;;;;;;4420641;32;20424;-72
2021/11/02 10:15:19;;;;;;;45.00;31.00;;;;;;;;;;4421813;32;20030;-74
2021/11/02 10:17:59;;;;;;;46.45;33.75;;;;;;;;;;4421166;32;20056;-75
2021/11/02 10:20:47;;;;;;;42.60;31.77;;;;;;;;;;4406238;32;20089;-73
2021/11/02 10:23:33;;;;;;;42.17;32.53;;;;;;;;;;4421140;32;20022;-73
2021/11/02 10:26:14;;;;;;;50.12;34.50;;;;;;;;;;4419939;32;20098;-74
2021/11/02 10:28:51;;;;;;;44.85;33.58;;;;;;;;;;4420299;32;20029;-74
2021/11/02 10:31:34;;;;;;;49.78;36.53;;;;;;;;;;4421713;32;20018;-73
2021/11/02 10:34:09;;;;;;;44.70;33.17;;;;;;;;;;4421220;32;20454;-73
2021/11/02 10:36:41;;;;;;;49.47;34.17;;;;;;;;;;4419860;32;20056;-73
2021/11/02 10:39:11;;;;;;;45.65;34.83;;;;;;;;;;4420933;32;20339;-73
2021/11/02 10:41:52;;;;;;;44.22;34.30;;;;;;;;;;4420877;32;20454;-69
2021/11/02 10:44:27;;;;;;;47.25;32.25;;;;;;;;;;4420410;32;20053;-72
2021/11/02 10:47:09;;;;;;;49.60;33.63;;;;;;;;;;4420134;32;20030;-73
2021/11/02 10:49:50;;;;;;;48.45;35.08;;;;;;;;;;4419456;32;20029;-72
2021/11/02 10:52:18;;;;;;;44.95;31.83;;;;;;;;;;4412177;32;20090;-71
2021/11/02 10:54:50;;;;;;;44.15;31.35;;;;;;;;;;4421104;32;20029;-72
2021/11/02 10:57:25;;;;;;;53.63;34.65;;;;;;;;;;4419826;32;20026;-74
2021/11/02 10:59:56;;;;;;;44.03;33.38;;;;;;;;;;4421507;32;20018;-74
2021/11/02 11:02:28;;;;;;;42.88;31.52;;;;;;;;;;4406951;32;20475;-72
2021/11/02 11:04:57;;;;;;;48.67;32.33;;;;;;;;;;4420498;32;20026;-73
2021/11/02 11:07:25;;;;;;;43.22;33.08;;;;;;;;;;4405974;32;20068;-71
2021/11/02 11:09:51;;;;;;;40.78;29.55;;;;;;;;;;4419710;32;20051;-71
2021/11/02 11:12:18;;;;;;;40.90;30.50;;;;;;;;;;4419754;32;20048;-74
2021/11/02 11:14:44;;;;;;;43.63;31.55;;;;;;;;;;4405978;32;20030;-73
2021/11/02 11:17:09;;;;;;;;;;;;;;;;;;4419769;32;20128;-73
2021/11/02 11:19:54;;;;;;;40.53;30.25;;;;;;;;;;4406631;32;19944;-73
2021/11/02 11:22:21;;;;;;;40.03;30.45;;;;;;;;;;4405354;32;20126;-74
2021/11/02 11:25:16;;;;;;;45.80;29.08;;;;;;;;;;4406906;32;20067;-74
2021/11/02 11:27:44;;;;;;;34.92;27.50;;;;;;;;;;4406078;32;20067;-74
2021/11/02 11:30:10;;;;;;;34.47;25.10;;;;;;;;;;4404989;32;20395;-74
2021/11/02 11:32:35;;;;;;;;;;;;;;;;;;4419566;32;20027;-74
2021/11/02 11:35:04;;;;;;;28.08;21.52;;;;;;;;;;4406009;32;20353;-75
2021/11/02 11:37:35;;;;;;;26.92;22.50;;;;;;;;;;4419203;32;20421;-75
2021/11/02 11:40:05;;;;;;;29.60;21.48;;;;;;;;;;4419246;32;20038;-75
2021/11/02 11:42:30;;;;;;;25.92;21.95;;;;;;;;;;4418006;32;20030;-74
2021/11/02 11:44:55;;;;;;;;;;;;;;;;;;4405363;32;20473;-74
2021/11/02 11:47:24;;;;;;;26.62;21.95;;;;;;;;;;4409551;32;19937;-74
2021/11/02 11:49:51;;;;;;;26.87;22.13;;;;;;;;;;4406071;32;20527;-75
2021/11/02 11:52:25;;;;;;;28.05;23.65;;;;;;;;;;4419742;32;20026;-74
2021/11/02 11:54:54;;;;;;;28.08;20.92;;;;;;;;;;4419697;32;20053;-75
2021/11/02 11:57:27;;;;;;;26.42;21.90;;;;;;;;;;4420003;32;20093;-74
2021/11/02 12:00:13;;;;;;;27.17;19.58;;;;;;;;;;4419410;32;20030;-73
2021/11/02 12:02:46;;;;;;;21.08;18.48;;;;;;;;;;4419303;32;20101;-74
2021/11/02 12:05:21;;;;;;;22.27;18.85;;;;;;;;;;4419103;32;20088;-75
2021/11/02 12:07:54;;;;;;;22.60;19.75;;;;;;;;;;4420035;32;20363;-73
2021/11/02 12:10:23;;;;;;;20.35;17.48;;;;;;;;;;4422010;32;20026;-75
2021/11/02 12:12:54;;;;;;;21.52;17.10;;;;;;;;;;4422824;32;20047;-74
2021/11/02 12:15:20;;;;;;;14.87;13.30;;;;;;;;;;4422953;32;20049;-75
2021/11/02 12:17:45;;;;;;;;;;;;;;;;;;4423379;32;20356;-74
2021/11/02 12:20:12;;;;;;;13.82;12.27;;;;;;;;;;4422411;32;19988;-74
2021/11/02 12:22:44;;;;;;;12.07;10.57;;;;;;;;;;4422137;32;20022;-74
2021/11/02 12:25:11;;;;;;;10.68;9.52;;;;;;;;;;4407072;32;20052;-74
2021/11/02 12:27:37;;;;;;;11.02;8.68;;;;;;;;;;4412429;32;20025;-74
2021/11/02 12:30:17;;;;;;;10.40;9.30;;;;;;;;;;4422594;32;20030;-74
2021/11/02 12:32:46;;;;;;;12.73;9.98;;;;;;;;;;4419992;32;20352;-74
2021/11/02 12:35:18;;;;;;;10.10;8.32;;;;;;;;;;4422313;32;20079;-74
2021/11/02 12:37:52;;;;;;;11.00;8.48;;;;;;;;;;4420295;32;20044;-74
2021/11/02 12:40:22;;;;;;;10.85;7.82;;;;;;;;;;4422410;32;20432;-70
2021/11/02 12:42:48;;;;;;;13.43;8.80;;;;;;;;;;4420884;32;20053;-74
2021/11/02 12:45:13;;;;;;;;;;;;;;;;;;4421820;32;20090;-75
2021/11/02 12:47:44;;;;;;;8.82;7.68;;;;;;;;;;4422101;32;19933;-74
2021/11/02 12:50:09;;;;;;;7.47;6.68;;;;;;;;;;4412994;32;20160;-73
2021/11/02 12:52:35;;;;;;;;;;;;;;;;;;4422510;32;20396;-74
2021/11/02 12:55:07;;;;;;;7.07;6.37;;;;;;;;;;4421973;32;19980;-75
2021/11/02 12:57:38;;;;;;;8.27;6.07;;;;;;;;;;4421611;32;20063;-71
2021/11/02 13:00:08;;;;;;;11.12;7.60;;;;;;;;;;4421842;32;20026;-74
2021/11/02 13:02:38;;;;;;;7.50;6.35;;;;;;;;;;4421410;32;20025;-74
2021/11/02 13:05:14;;;;;;;12.60;7.15;;;;;;;;;;4421805;32;20030;-73
2021/11/02 13:07:41;;;;;;;8.85;7.43;;;;;;;;;;4421961;32;20018;-75
2021/11/02 13:10:19;;;;;;;8.40;7.00;;;;;;;;;;4408482;32;20022;-73
2021/11/02 13:12:48;;;;;;;14.52;8.40;;;;;;;;;;4408153;32;20026;-74
2021/11/02 13:15:13;;;;;;;9.93;8.00;;;;;;;;;;4422217;32;20416;-74
2021/11/02 13:17:42;;;;;;;;;;;;;;;;;;4421842;32;20072;-74
2021/11/02 13:20:08;;;;;;;12.48;9.07;;;;;;;;;;4421842;32;19986;-74
2021/11/02 13:22:33;;;;;;;;;;;;;;;;;;4422359;32;20022;-73
2021/11/02 13:25:04;;;;;;;9.27;8.10;;;;;;;;;;4421394;32;20331;-74
2021/11/02 13:27:30;;;;;;;9.32;7.32;;;;;;;;;;4421718;32;20064;-74
2021/11/02 13:29:55;;;;;;;;;;;;;;;;;;4421996;32;20460;-74
2021/11/02 13:32:20;;;;;;;6.85;6.15;;;;;;;;;;4421371;32;19948;-72
2021/11/02 13:34:45;;;;;;;;;;;;;;;;;;4421237;32;20118;-75
2021/11/02 13:37:14;;;;;;;6.12;5.20;;;;;;;;;;4421620;32;19973;-75
2021/11/02 13:39:49;;;;;;;12.10;5.37;;;;;;;;;;4407695;32;20398;-74
2021/11/02 13:42:14;;;;;;;5.85;4.53;;;;;;;;;;4407647;32;20046;-74
2021/11/02 13:44:43;;;;;;;;;;;;;;;;;;4420774;32;20475;-73
2021/11/02 13:47:10;;;;;;;5.22;4.25;;;;;;;;;;4421207;32;19942;-74
2021/11/02 13:49:35;;;;;;;;;;;;;;;;;;4421166;32;20030;-74
2021/11/02 13:52:00;;;;;;;6.47;4.95;;;;;;;;;;4421176;32;19949;-74
2021/11/02 13:54:25;;;;;;;;;;;;;;;;;;4420795;32;20411;-72
2021/11/02 13:56:51;;;;;;;6.05;4.78;;;;;;;;;;4406654;32;20349;-74
2021/11/02 13:59:16;;;;;;;;;;;;;;;;;;4421618;32;20402;-74
2021/11/02 14:01:47;;;;;;;5.72;3.78;;;;;;;;;;4406805;32;20348;-74
2021/11/02 14:04:24;;;;;;;6.10;4.30;;;;;;;;;;4420232;32;20691;-74
2021/11/02 14:06:54;;;;;;;7.10;4.22;;;;;;;;;;4421337;32;20038;-74
2021/11/02 14:09:27;;;;;;;5.35;4.25;;;;;;;;;;4421475;32;20105;-73
2021/11/02 14:11:52;;;;;;;7.87;3.65;;;;;;;;;;4421567;32;20074;-73
2021/11/02 14:14:17;;;;;;;;;;;;;;;;;;4420952;32;20057;-74
2021/11/02 14:16:43;;;;;;;6.30;3.75;;;;;;;;;;4421269;32;19983;-72
2021/11/02 14:19:28;;;;;;;6.47;2.80;;;;;;;;;;4421866;32;20087;-73
2021/11/02 14:21:53;;;;;;;3.92;2.15;;;;;;;;;;4421041;32;20085;-74
2021/11/02 14:24:18;;;;;;;;;;;;;;;;;;4421302;32;20053;-73
2021/11/02 14:26:45;;;;;;;5.97;2.22;;;;;;;;;;4420690;32;19947;-75
2021/11/02 14:29:10;;;;;;;1.30;1.20;;;;;;;;;;4420920;32;20409;-73
2021/11/02 14:31:40;;;;;;;;;;;;;;;;;;4420526;32;20052;-74
2021/11/02 14:34:06;;;;;;;4.10;1.50;;;;;;;;;;4420493;32;19975;-74
2021/11/02 14:36:31;;;;;;;;;;;;;;;;;;4406787;32;20066;-74
2021/11/02 14:38:56;;;;;;;4.10;1.00;;;;;;;;;;4420165;32;19954;-73
2021/11/02 14:41:22;;;;;;;;;;;;;;;;;;4420469;32;20413;-74
2021/11/02 14:43:48;;;;;;;1.73;1.17;;;;;;;;;;4420554;32;19944;-74
2021/11/02 14:46:15;;;;;;;;;;;;;;;;;;4421271;32;20105;-72
2021/11/02 14:48:47;;;;;;;2.58;1.15;;;;;;;;;;4420364;32;20278;-75
2021/11/02 14:51:12;;;;;;;3.67;1.37;;;;;;;;;;4418057;32;20054;-73
2021/11/02 14:53:37;;;;;;;;;;;;;;;;;;4421807;32;20105;-73
2021/11/02 14:56:11;;;;;;;4.55;1.17;;;;;;;;;;4420503;32;19971;-74
2021/11/02 14:58:42;;;;;;;3.35;1.12;;;;;;;;;;4415001;32;20049;-73
2021/11/02 15:01:09;;;;;;;2.33;1.23;;;;;;;;;;4420587;32;20034;-75
2021/11/02 15:03:35;;;;;;;2.55;1.50;;;;;;;;;;4419027;32;20413;-73
2021/11/02 15:06:00;;;;;;;;;;;;;;;;;;4419917;32;20094;-72
2021/11/02 15:08:29;;;;;;;2.42;1.87;;;;;;;;;;4420458;32;19971;-73
2021/11/02 15:10:56;;;;;;;1.37;1.12;;;;;;;;;;4420226;32;20026;-74
2021/11/02 15:13:22;;;;;;;3.92;1.25;;;;;;;;;;4420177;32;20074;-73
2021/11/02 15:15:47;;;;;;;;;;;;;;;;;;4420886;32;20073;-75
2021/11/02 15:18:14;;;;;;;4.30;1.87;;;;;;;;;;4420012;32;19933;-75
2021/11/02 15:20:39;;;;;;;8.27;1.92;;;;;;;;;;4420320;32;20048;-73
2021/11/02 15:23:04;;;;;;;;;;;;;;;;;;4420235;32;20090;-74
2021/11/02 15:25:29;;;;;;;2.87;1.35;;;;;;;;;;4419964;32;19960;-74
2021/11/02 15:27:58;;;;;;;;;;;;;;;;;;4420669;32;20027;-74
2021/11/02 15:30:23;;;;;;;4.12;1.70;;;;;;;;;;4420790;32;20289;-74
2021/11/02 15:32:50;;;;;;;;;;;;;;;;;;4421033;32;20078;-73
2021/11/02 15:35:18;;;;;;;2.93;1.63;;;;;;;;;;4420695;32;19933;-73
2021/11/02 15:37:43;;;;;;;3.33;1.80;;;;;;;;;;4419806;32;20046;-74
2021/11/02 15:40:08;;;;;;;;;;;;;;;;;;4419665;32;20387;-74
2021/11/02 15:42:35;;;;;;;3.37;1.77;;;;;;;;;;4421188;32;19937;-75
2021/11/02 15:45:02;;;;;;;4.32;1.95;;;;;;;;;;4423447;32;20060;-74
2021/11/02 15:47:28;;;;;;;2.70;1.80;;;;;;;;;;4423494;32;20325;-73
2021/11/02 15:49:53;;;;;;;;;;;;;;;;;;4423063;32;20087;-72
2021/11/02 15:52:18;;;;;;;4.57;1.90;;;;;;;;;;4423289;32;19984;-70
2021/11/02 15:54:47;;;;;;;;;;;;;;;;;;4423824;32;20175;-74
2021/11/02 15:57:12;;;;;;;2.80;1.90;;;;;;;;;;4421983;32;20366;-73
2021/11/02 15:59:37;;;;;;;;;;;;;;;;;;4422780;32;20087;-73
2021/11/02 16:02:03;;;;;;;7.87;2.30;;;;;;;;;;4408454;32;19945;-72
2021/11/02 16:04:28;;;;;;;;;;;;;;;;;;4422816;32;20022;-74
2021/11/02 16:06:54;;;;;;;5.37;2.42;;;;;;;;;;4421851;32;19978;-72
2021/11/02 16:09:20;;;;;;;4.95;3.15;;;;;;;;;;4422344;32;20022;-73
2021/11/02 16:11:47;;;;;;;;;;;;;;;;;;4422571;32;20405;-73
2021/11/02 16:14:13;;;;;;;3.92;2.80;;;;;;;;;;4421442;32;19980;-72
2021/11/02 16:16:38;;;;;;;;;;;;;;;;;;4408414;32;20096;-74
2021/11/02 16:19:04;;;;;;;4.30;2.45;;;;;;;;;;4420872;32;20335;-74
2021/11/02 16:21:32;;;;;;;5.15;2.80;;;;;;;;;;4406964;32;20026;-74
2021/11/02 16:24:05;;;;;;;5.55;3.20;;;;;;;;;;4422030;32;20068;-74
2021/11/02 16:26:30;;;;;;;6.18;3.25;;;;;;;;;;4420803;32;20022;-73
2021/11/02 16:28:58;;;;;;;;;;;;;;;;;;4422108;32;20048;-73
2021/11/02 16:31:26;;;;;;;4.05;3.17;;;;;;;;;;4421672;32;19957;-73
2021/11/02 16:34:04;;;;;;;9.43;4.30;;;;;;;;;;4418106;32;20113;-74
2021/11/02 16:36:30;;;;;;;6.32;4.25;;;;;;;;;;4407993;32;20039;-74
2021/11/02 16:38:57;;;;;;;12.30;5.25;;;;;;;;;;4422654;32;20026;-75
2021/11/02 16:41:23;;;;;;;9.98;5.55;;;;;;;;;;4420881;32;20060;-75
2021/11/02 16:43:49;;;;;;;;;;;;;;;;;;4422651;32;20348;-74
2021/11/02 16:46:25;;;;;;;13.57;7.10;;;;;;;;;;4421194;32;19933;-75
2021/11/02 16:48:56;;;;;;;9.85;5.25;;;;;;;;;;4420439;32;20041;-75
2021/11/02 16:51:21;;;;;;;10.45;6.68;;;;;;;;;;4421961;32;20022;-74
2021/11/02 16:53:46;;;;;;;;;;;;;;;;;;4422479;32;20098;-76
2021/11/02 16:56:21;;;;;;;11.88;6.68;;;;;;;;;;4408177;32;20286;-74
2021/11/02 16:58:48;;;;;;;11.98;6.07;;;;;;;;;;4422703;32;20045;-74
2021/11/02 17:01:23;;;;;;;8.30;5.85;;;;;;;;;;4408492;32;20034;-74
2021/11/02 17:03:50;;;;;;;7.40;5.53;;;;;;;;;;4422567;32;20019;-73
2021/11/02 17:06:19;;;;;;;8.75;5.18;;;;;;;;;;4413849;32;20068;-73
2021/11/02 17:09:10;;;;;;;12.05;5.80;;;;;;;;;;4402309;32;20035;-73
2021/11/02 17:11:46;;;;;;;15.63;6.07;;;;;;;;;;4411109;32;20033;-73
2021/11/02 17:14:12;;;;;;;12.10;7.43;;;;;;;;;;4413459;32;20092;-74
2021/11/02 17:16:42;;;;;;;14.18;7.57;;;;;;;;;;4406123;32;20035;-74
2021/11/02 17:19:26;;;;;;;11.10;6.55;;;;;;;;;;4406551;32;20477;-75
2021/11/02 17:21:52;;;;;;;11.30;5.95;;;;;;;;;;4407221;32;20018;-74
2021/11/02 17:24:18;;;;;;;5.43;2.60;;;;;;;;;;4401729;32;20038;-72
2021/11/02 17:26:43;;;;;;;;;;;;;;;;;;4391203;32;20053;-75
2021/11/02 17:29:19;;;;;;;3.53;1.65;;;;;;;;;;4391574;32;19960;-75
2021/11/02 17:31:44;;;;;;;1.50;1.08;;;;;;;;;;4391768;32;20052;-71
2021/11/02 17:34:10;;;;;;;;;;;;;;;;;;4391691;32;20023;-73
2021/11/02 17:36:36;;;;;;;1.87;1.20;;;;;;;;;;4391595;32;19941;-75
2021/11/02 17:39:01;;;;;;;;;;;;;;;;;;4391338;32;20052;-76
2021/11/02 17:41:26;;;;;;;8.15;1.37;;;;;;;;;;4395471;32;19989;-74
2021/11/02 17:43:52;;;;;;;;;;;;;;;;;;4406608;32;20449;-72
2021/11/02 17:46:18;;;;;;;5.32;1.35;;;;;;;;;;4405965;32;20380;-76
2021/11/02 17:48:43;;;;;;;;;;;;;;;;;;4405935;32;20083;-75
2021/11/02 17:51:08;;;;;;;3.12;1.15;;;;;;;;;;4404578;32;20389;-75
2021/11/02 17:53:33;;;;;;;;;;;;;;;;;;4406772;32;20118;-75
2021/11/02 17:56:03;;;;;;;5.28;1.40;;;;;;;;;;4406484;32;19933;-74
2021/11/02 17:58:29;;;;;;;3.65;1.60;;;;;;;;;;4406606;32;20175;-74
2021/11/02 18:00:56;;;;;;;;;;;;;;;;;;4406422;32;20101;-74
2021/11/02 18:03:28;;;;;;;8.95;2.83;;;;;;;;;;4406629;32;19977;-74
2021/11/02 18:05:57;;;;;;;4.60;3.00;;;;;;;;;;4413666;32;20088;-73
2021/11/02 18:08:26;;;;;;;10.82;6.78;;;;;;;;;;4414337;32;20136;-76
2021/11/02 18:10:54;;;;;;;6.97;4.70;;;;;;;;;;4405033;32;20033;-75
2021/11/02 18:13:19;;;;;;;7.47;4.93;;;;;;;;;;4414320;32;20030;-76
2021/11/02 18:15:45;;;;;;;;;;;;;;;;;;4406570;32;20108;-76
2021/11/02 18:18:19;;;;;;;2.86;1.84;;;;;;;;;;4391983;32;19940;-74
2021/11/02 18:21:06;;;;;;;4.93;3.08;;;;;;;;;;4406468;32;20360;-75
2021/11/02 18:23:32;;;;;;;5.10;2.92;;;;;;;;;;4392131;32;20023;-75
2021/11/02 18:25:57;;;;;;;;;;;;;;;;;;4406270;32;20439;-75
2021/11/02 18:28:22;;;;;;;4.00;2.65;;;;;;;;;;4405499;32;19976;-76
2021/11/02 18:30:47;;;;;;;;;;;;;;;;;;4405998;32;20189;-75
2021/11/02 18:33:13;;;;;;;10.07;3.45;;;;;;;;;;4406309;32;19933;-76
2021/11/02 18:35:38;;;;;;;;;;;;;;;;;;4392024;32;20198;-75
2021/11/02 18:38:07;;;;;;;4.90;2.12;;;;;;;;;;4406078;32;19934;-77
2021/11/02 18:40:35;;;;;;;2.83;1.90;;;;;;;;;;4405395;32;20026;-73
2021/11/02 18:43:01;;;;;;;6.90;3.20;;;;;;;;;;4406441;32;20053;-75
2021/11/02 18:48:14;;;;;;;3.17;1.95;;;;;;;;;;4373379;32;19952;-75
2021/11/02 18:50:45;;;;;;;4.40;1.60;;;;;;;;;;4405221;32;20109;-75
2021/11/02 18:53:13;;;;;;;4.85;1.75;;;;;;;;;;4405715;32;20026;-75
2021/11/02 18:55:39;;;;;;;3.75;2.33;;;;;;;;;;4405216;32;20108;-75
2021/11/02 18:58:04;;;;;;;;;;;;;;;;;;4406093;32;20335;-76
2021/11/02 19:00:30;;;;;;;6.05;3.90;;;;;;;;;;4405554;32;19933;-75
2021/11/02 19:02:56;;;;;;;;;;;;;;;;;;4406032;32;20026;-76
2021/11/02 19:08:30;;;;;;;4.12;2.50;;;;;;;;;;4373526;32;20385;-76
2021/11/02 19:11:00;;;;;;;3.22;2.35;;;;;;;;;;4360816;32;20503;-76
2021/11/02 19:13:35;;;;;;;3.70;2.50;;;;;;;;;;4372905;32;20031;-76
2021/11/02 19:16:01;;;;;;;4.00;2.85;;;;;;;;;;4373357;32;20034;-75
2021/11/02 19:18:26;;;;;;;;;;;;;;;;;;4378840;32;20081;-75
2021/11/02 19:20:51;;;;;;;3.97;3.42;;;;;;;;;;4404996;32;19985;-72
2021/11/02 19:23:26;;;;;;;;;;;;;;;;;;4405558;32;20026;-75
2021/11/02 19:25:51;;;;;;;6.57;4.80;;;;;;;;;;4406029;32;19978;-75
2021/11/02 19:28:47;;;;;;;;;;;;;;;;;;;;;
2021/11/02 19:31:11;;;;;;;10.80;7.30;;;;;;;;;;4387365;32;19975;-75
2021/11/02 19:33:37;;;;;;;12.52;10.20;;;;;;;;;;4389793;32;20329;-75
2021/11/02 19:36:02;;;;;;;;;;;;;;;;;;4390470;32;20120;-77
2021/11/02 19:38:28;;;;;;;11.85;8.90;;;;;;;;;;4401287;32;19938;-75
2021/11/02 19:40:53;;;;;;;;;;;;;;;;;;4390447;32;20027;-76
2021/11/02 19:43:18;;;;;;;16.08;13.07;;;;;;;;;;4389626;32;19934;-77
2021/11/02 19:45:43;;;;;;;;;;;;;;;;;;4390258;32;20130;-77
2021/11/02 19:48:09;;;;;;;18.73;13.20;;;;;;;;;;4401513;32;20312;-74
2021/11/02 19:50:34;;;;;;;;;;;;;;;;;;4389906;32;20161;-75
2021/11/02 19:53:07;;;;;;;15.48;10.38;;;;;;;;;;4401619;32;19948;-76
2021/11/02 19:55:36;;;;;;;11.48;9.70;;;;;;;;;;4390402;32;20062;-75
2021/11/02 19:58:19;;;;;;;17.42;9.25;;;;;;;;;;4390522;32;20344;-76
2021/11/02 20:00:44;;;;;;;10.65;6.65;;;;;;;;;;4381563;32;20054;-75